createdAt,value
2017-03-18T00:00:24.225Z,88.17
2017-03-18T00:01:18.217Z,88.28
2017-03-18T00:02:12.784Z,88.38
2017-03-18T00:03:06.289Z,88.43
2017-03-18T00:03:54.298Z,88.47
2017-03-18T00:04:48.369Z,88.55
2017-03-18T00:05:42.351Z,88.60
2017-03-18T00:06:36.385Z,88.67
2017-03-18T00:07:30.449Z,88.71
2017-03-18T00:08:18.491Z,88.76
2017-03-18T00:09:12.864Z,88.88
2017-03-18T00:10:06.586Z,88.94
2017-03-18T00:11:00.598Z,88.99
2017-03-18T00:11:49.577Z,89.02
2017-03-18T00:12:44.034Z,89.11
2017-03-18T00:13:37.693Z,89.15
2017-03-18T00:14:37.733Z,89.21
2017-03-18T00:15:31.724Z,89.28
2017-03-18T00:16:25.746Z,89.31
2017-03-18T00:17:13.736Z,89.34
2017-03-18T00:18:07.880Z,89.39
2017-03-18T00:19:01.871Z,89.44
2017-03-18T00:19:56.936Z,89.48
2017-03-18T00:20:45.945Z,89.53
2017-03-18T00:21:45.933Z,89.56
2017-03-18T00:22:40.990Z,89.61
2017-03-18T00:23:35.042Z,89.67
2017-03-18T00:24:29.399Z,89.69
2017-03-18T00:25:17.072Z,89.75
2017-03-18T00:26:11.107Z,89.77
2017-03-18T00:27:06.156Z,89.86
2017-03-18T00:28:00.134Z,89.86
2017-03-18T00:28:55.161Z,89.91
2017-03-18T00:29:49.242Z,89.94
2017-03-18T00:30:38.299Z,89.98
2017-03-18T00:31:27.279Z,89.98
2017-03-18T00:32:28.285Z,90.07
2017-03-18T00:33:17.391Z,90.09
2017-03-18T00:34:06.577Z,90.12
2017-03-18T00:34:55.471Z,90.15
2017-03-18T00:35:44.475Z,90.20
2017-03-18T00:36:39.503Z,90.20
2017-03-18T00:37:34.536Z,90.24
2017-03-18T00:38:22.564Z,90.29
2017-03-18T00:39:17.001Z,90.31
2017-03-18T00:40:04.668Z,90.33
2017-03-18T00:41:05.696Z,90.36
2017-03-18T00:42:06.724Z,90.40
2017-03-18T00:42:55.766Z,90.43
2017-03-18T00:43:50.759Z,90.49
2017-03-18T00:44:38.883Z,90.49
2017-03-18T00:45:26.884Z,90.51
2017-03-18T00:46:14.911Z,90.57
2017-03-18T00:47:08.947Z,90.60
2017-03-18T00:48:02.934Z,90.62
2017-03-18T00:49:02.943Z,90.67
2017-03-18T00:49:57.022Z,90.69
2017-03-18T00:50:52.058Z,90.75
2017-03-18T00:51:52.131Z,90.77
2017-03-18T00:52:41.087Z,90.77
2017-03-18T00:53:36.128Z,90.81
2017-03-18T00:54:25.179Z,90.84
2017-03-18T00:55:20.184Z,90.86
2017-03-18T00:56:14.178Z,90.91
2017-03-18T00:57:09.293Z,90.90
2017-03-18T00:58:03.305Z,90.96
2017-03-18T00:58:58.296Z,90.96
2017-03-18T00:59:58.347Z,91.00
2017-03-18T01:00:58.352Z,91.06
2017-03-18T01:01:52.410Z,91.08
2017-03-18T01:02:46.441Z,91.08
2017-03-18T01:03:35.465Z,91.11
2017-03-18T01:04:30.500Z,91.15
2017-03-18T01:05:25.519Z,91.16
2017-03-18T01:06:14.579Z,91.19
2017-03-18T01:07:09.609Z,91.21
2017-03-18T01:08:03.639Z,91.24
2017-03-18T01:09:03.611Z,91.28
2017-03-18T01:09:52.705Z,91.30
2017-03-18T01:10:41.710Z,91.32
2017-03-18T01:11:35.848Z,91.34
2017-03-18T01:12:29.805Z,91.35
2017-03-18T01:13:17.924Z,91.38
2017-03-18T01:14:17.877Z,91.39
2017-03-18T01:15:06.863Z,91.43
2017-03-18T01:16:00.904Z,91.44
2017-03-18T01:16:48.984Z,91.46
2017-03-18T01:17:50.013Z,91.48
2017-03-18T01:18:39.027Z,91.52
2017-03-18T01:19:27.151Z,91.53
2017-03-18T01:20:22.146Z,91.53
2017-03-18T01:21:17.094Z,91.56
2017-03-18T01:22:11.193Z,91.59
2017-03-18T01:23:12.170Z,91.61
2017-03-18T01:24:07.196Z,91.63
2017-03-18T01:24:56.250Z,91.65
2017-03-18T01:25:50.270Z,91.68
2017-03-18T01:26:38.305Z,91.68
2017-03-18T01:27:27.382Z,91.68
2017-03-18T01:28:15.385Z,91.72
2017-03-18T01:29:04.415Z,91.72
2017-03-18T01:30:04.431Z,91.75
2017-03-18T01:31:04.496Z,91.77
2017-03-18T01:31:59.511Z,91.77
2017-03-18T01:32:48.593Z,91.78
2017-03-18T01:33:43.601Z,91.83
2017-03-18T01:34:43.595Z,91.83
2017-03-18T01:35:32.615Z,91.84
2017-03-18T01:36:26.669Z,91.88
2017-03-18T01:37:20.726Z,91.90
2017-03-18T01:38:14.764Z,91.91
2017-03-18T01:39:08.768Z,91.94
2017-03-18T01:39:56.799Z,91.93
2017-03-18T01:40:50.794Z,91.95
2017-03-18T01:41:45.893Z,91.98
2017-03-18T01:42:45.914Z,91.98
2017-03-18T01:43:40.929Z,92.01
2017-03-18T01:44:34.944Z,92.03
2017-03-18T01:45:29.004Z,92.04
2017-03-18T01:46:28.995Z,92.06
2017-03-18T01:47:17.097Z,92.08
2017-03-18T01:48:17.149Z,92.10
2017-03-18T01:49:12.149Z,92.13
2017-03-18T01:50:12.088Z,92.14
2017-03-18T01:51:06.168Z,92.19
2017-03-18T01:52:00.205Z,92.18
2017-03-18T01:52:54.210Z,92.20
2017-03-18T01:53:42.249Z,92.21
2017-03-18T01:54:31.284Z,92.24
2017-03-18T01:55:20.309Z,92.21
2017-03-18T01:56:08.332Z,92.26
2017-03-18T01:57:03.387Z,92.26
2017-03-18T01:57:51.442Z,92.28
2017-03-18T01:58:46.492Z,92.27
2017-03-18T01:59:46.487Z,92.32
2017-03-18T02:00:34.516Z,92.32
2017-03-18T02:01:28.569Z,92.32
2017-03-18T02:02:23.609Z,92.32
2017-03-18T02:03:17.623Z,92.35
2017-03-18T02:04:12.675Z,92.39
2017-03-18T02:05:06.697Z,92.42
2017-03-18T02:06:00.667Z,92.43
2017-03-18T02:06:54.760Z,92.44
2017-03-18T02:07:54.735Z,92.46
2017-03-18T02:08:48.809Z,92.44
2017-03-18T02:09:37.845Z,92.48
2017-03-18T02:10:26.882Z,92.48
2017-03-18T02:11:15.892Z,92.54
2017-03-18T02:12:09.878Z,92.57
2017-03-18T02:13:03.950Z,92.59
2017-03-18T02:14:05.003Z,92.62
2017-03-18T02:14:59.069Z,92.61
2017-03-18T02:15:53.097Z,92.61
2017-03-18T02:16:47.154Z,92.66
2017-03-18T02:17:35.140Z,92.66
2017-03-18T02:18:30.127Z,92.70
2017-03-18T02:19:24.178Z,92.66
2017-03-18T02:20:13.219Z,92.66
2017-03-18T02:21:13.282Z,92.72
2017-03-18T02:22:02.275Z,92.72
2017-03-18T02:22:51.311Z,92.72
2017-03-18T02:23:51.370Z,92.73
2017-03-18T02:24:39.489Z,92.77
2017-03-18T02:25:33.442Z,92.77
2017-03-18T02:26:21.527Z,92.78
2017-03-18T02:27:15.493Z,92.78
2017-03-18T02:28:10.576Z,92.78
2017-03-18T02:29:05.570Z,92.80
2017-03-18T02:30:00.610Z,92.82
2017-03-18T02:31:00.599Z,92.82
2017-03-18T02:31:54.677Z,92.82
2017-03-18T02:32:48.702Z,92.86
2017-03-18T02:33:42.682Z,92.86
2017-03-18T02:34:37.761Z,92.86
2017-03-18T02:35:31.800Z,92.86
2017-03-18T02:36:19.800Z,92.90
2017-03-18T02:37:14.821Z,92.90
2017-03-18T02:38:14.864Z,92.91
2017-03-18T02:39:09.890Z,92.92
2017-03-18T02:39:58.990Z,92.90
2017-03-18T02:40:52.994Z,92.95
2017-03-18T02:41:47.008Z,92.95
2017-03-18T02:42:36.034Z,92.96
2017-03-18T02:43:25.090Z,92.96
2017-03-18T02:44:14.122Z,92.96
2017-03-18T02:45:03.201Z,92.96
2017-03-18T02:45:58.192Z,93.01
2017-03-18T02:46:58.240Z,93.01
2017-03-18T02:47:53.299Z,93.01
2017-03-18T02:48:42.307Z,93.03
2017-03-18T02:49:36.275Z,93.05
2017-03-18T02:50:25.396Z,93.06
2017-03-18T02:51:19.427Z,93.06
2017-03-18T02:52:13.410Z,93.06
2017-03-18T02:53:07.476Z,93.08
2017-03-18T02:54:01.455Z,93.09
2017-03-18T02:54:55.515Z,93.10
2017-03-18T02:55:50.532Z,93.10
2017-03-18T02:56:39.605Z,93.11
2017-03-18T02:57:33.599Z,93.14
2017-03-18T02:58:27.678Z,93.14
2017-03-18T02:59:16.688Z,93.14
2017-03-18T03:00:17.697Z,93.14
2017-03-18T03:01:06.782Z,93.14
2017-03-18T03:02:00.796Z,93.19
2017-03-18T03:02:55.812Z,93.20
2017-03-18T03:03:49.880Z,93.20
2017-03-18T03:04:43.875Z,93.20
2017-03-18T03:05:38.915Z,93.20
2017-03-18T03:06:33.382Z,93.20
2017-03-18T03:07:33.457Z,93.25
2017-03-18T03:08:27.006Z,93.25
2017-03-18T03:09:16.003Z,93.21
2017-03-18T03:10:11.088Z,93.25
2017-03-18T03:11:00.114Z,93.25
2017-03-18T03:11:54.148Z,93.30
2017-03-18T03:12:49.187Z,93.29
2017-03-18T03:13:38.205Z,93.31
2017-03-18T03:14:32.294Z,93.31
2017-03-18T03:15:21.214Z,93.31
2017-03-18T03:16:15.256Z,93.31
2017-03-18T03:17:09.363Z,93.33
2017-03-18T03:18:03.391Z,93.34
2017-03-18T03:18:58.398Z,93.36
2017-03-18T03:19:47.488Z,93.36
2017-03-18T03:20:36.620Z,93.34
2017-03-18T03:21:31.506Z,93.36
2017-03-18T03:22:31.512Z,93.36
2017-03-18T03:23:25.629Z,93.41
2017-03-18T03:24:19.607Z,93.41
2017-03-18T03:25:13.671Z,93.42
2017-03-18T03:26:07.723Z,93.41
2017-03-18T03:26:56.719Z,93.43
2017-03-18T03:27:56.731Z,93.43
2017-03-18T03:28:45.797Z,93.43
2017-03-18T03:29:34.826Z,93.44
2017-03-18T03:30:29.900Z,93.45
2017-03-18T03:31:24.846Z,93.47
2017-03-18T03:32:18.907Z,93.48
2017-03-18T03:33:06.947Z,93.48
2017-03-18T03:34:07.001Z,93.49
2017-03-18T03:35:06.977Z,93.51
2017-03-18T03:35:55.047Z,93.49
2017-03-18T03:36:55.129Z,93.49
2017-03-18T03:37:44.166Z,93.51
2017-03-18T03:38:32.108Z,93.53
2017-03-18T03:39:27.206Z,93.54
2017-03-18T03:40:16.462Z,93.54
2017-03-18T03:41:05.274Z,93.54
2017-03-18T03:42:00.265Z,93.57
2017-03-18T03:42:54.303Z,93.57
2017-03-18T03:43:42.368Z,93.60
2017-03-18T03:44:36.473Z,93.60
2017-03-18T03:45:25.369Z,93.60
2017-03-18T03:46:19.492Z,93.60
2017-03-18T03:47:07.433Z,93.61
2017-03-18T03:48:01.502Z,93.62
2017-03-18T03:48:50.499Z,93.61
2017-03-18T03:49:39.936Z,93.64
2017-03-18T03:50:33.611Z,93.65
2017-03-18T03:51:27.673Z,93.64
2017-03-18T03:52:16.713Z,93.67
2017-03-18T03:53:10.742Z,93.67
2017-03-18T03:53:58.781Z,93.67
2017-03-18T03:54:52.832Z,93.71
2017-03-18T03:55:41.180Z,93.68
2017-03-18T03:56:34.886Z,93.68
2017-03-18T03:57:29.880Z,93.68
2017-03-18T03:58:17.907Z,93.70
2017-03-18T03:59:06.986Z,93.73
2017-03-18T03:59:55.937Z,93.73
2017-03-18T04:00:45.079Z,93.73
2017-03-18T04:01:39.099Z,93.73
2017-03-18T04:02:33.096Z,93.73
2017-03-18T04:03:22.177Z,93.74
2017-03-18T04:04:17.201Z,93.77
2017-03-18T04:05:11.224Z,93.75
2017-03-18T04:05:59.264Z,93.77
2017-03-18T04:06:48.305Z,93.80
2017-03-18T04:07:37.321Z,93.80
2017-03-18T04:08:26.320Z,93.80
2017-03-18T04:09:14.380Z,93.80
2017-03-18T04:10:09.413Z,93.80
2017-03-18T04:10:57.460Z,93.83
2017-03-18T04:11:46.486Z,93.81
2017-03-18T04:12:41.531Z,93.81
2017-03-18T04:13:29.572Z,93.86
2017-03-18T04:14:17.575Z,93.84
2017-03-18T04:15:12.664Z,93.86
2017-03-18T04:16:06.683Z,93.87
2017-03-18T04:17:01.690Z,93.87
2017-03-18T04:18:01.766Z,93.88
2017-03-18T04:18:50.792Z,93.88
2017-03-18T04:19:39.791Z,93.89
2017-03-18T04:20:33.893Z,93.93
2017-03-18T04:21:22.869Z,93.88
2017-03-18T04:22:17.902Z,93.91
2017-03-18T04:23:17.949Z,93.94
2017-03-18T04:24:11.951Z,93.94
2017-03-18T04:25:01.001Z,93.94
2017-03-18T04:25:49.007Z,93.95
2017-03-18T04:26:37.134Z,93.95
2017-03-18T04:27:32.144Z,93.95
2017-03-18T04:28:21.175Z,93.95
2017-03-18T04:29:10.156Z,94.00
2017-03-18T04:30:05.174Z,94.01
2017-03-18T04:30:59.255Z,93.99
2017-03-18T04:31:48.255Z,94.01
2017-03-18T04:32:37.326Z,94.02
2017-03-18T04:33:31.412Z,94.01
2017-03-18T04:34:19.398Z,94.02
2017-03-18T04:35:08.427Z,94.02
2017-03-18T04:36:03.466Z,94.02
2017-03-18T04:36:58.468Z,94.03
2017-03-18T04:37:58.493Z,94.05
2017-03-18T04:38:52.860Z,94.07
2017-03-18T04:39:41.615Z,94.05
2017-03-18T04:40:30.585Z,94.08
2017-03-18T04:41:24.681Z,94.08
2017-03-18T04:42:12.696Z,94.08
2017-03-18T04:43:01.764Z,94.09
2017-03-18T04:43:55.763Z,94.09
2017-03-18T04:44:45.297Z,94.09
2017-03-18T04:45:38.844Z,94.12
2017-03-18T04:46:33.892Z,94.14
2017-03-18T04:47:27.936Z,94.14
2017-03-18T04:48:22.006Z,94.14
2017-03-18T04:49:09.995Z,94.15
2017-03-18T04:50:04.067Z,94.16
2017-03-18T04:50:58.021Z,94.15
2017-03-18T04:51:46.412Z,94.16
2017-03-18T04:52:40.109Z,94.19
2017-03-18T04:53:34.174Z,94.19
2017-03-18T04:54:28.192Z,94.19
2017-03-18T04:55:22.192Z,94.22
2017-03-18T04:56:16.280Z,94.22
2017-03-18T04:57:10.287Z,94.22
2017-03-18T04:58:04.308Z,94.22
2017-03-18T04:58:53.380Z,94.23
2017-03-18T04:59:47.805Z,94.23
2017-03-18T05:00:41.422Z,94.23
2017-03-18T05:01:36.453Z,94.25
2017-03-18T05:02:30.497Z,94.25
2017-03-18T05:03:24.518Z,94.28
2017-03-18T05:04:12.568Z,94.24
2017-03-18T05:05:01.544Z,94.28
2017-03-18T05:05:55.595Z,94.28
2017-03-18T05:06:49.620Z,94.28
2017-03-18T05:07:37.741Z,94.29
2017-03-18T05:08:31.751Z,94.29
2017-03-18T05:09:19.781Z,94.33
2017-03-18T05:10:14.787Z,94.33
2017-03-18T05:11:04.207Z,94.34
2017-03-18T05:11:58.895Z,94.34
2017-03-18T05:12:48.288Z,94.35
2017-03-18T05:13:37.025Z,94.35
2017-03-18T05:14:30.902Z,94.35
2017-03-18T05:15:20.006Z,94.36
2017-03-18T05:16:09.048Z,94.36
2017-03-18T05:16:58.084Z,94.36
2017-03-18T05:17:53.100Z,94.38
2017-03-18T05:18:54.205Z,94.39
2017-03-18T05:19:43.202Z,94.39
2017-03-18T05:20:32.276Z,94.41
2017-03-18T05:21:21.250Z,94.42
2017-03-18T05:22:15.305Z,94.42
2017-03-18T05:23:10.349Z,94.42
2017-03-18T05:23:58.365Z,94.42
2017-03-18T05:24:58.395Z,94.43
2017-03-18T05:25:46.421Z,94.43
2017-03-18T05:26:40.426Z,94.43
2017-03-18T05:27:34.487Z,94.44
2017-03-18T05:28:28.553Z,94.46
2017-03-18T05:29:22.589Z,94.46
2017-03-18T05:30:17.596Z,94.49
2017-03-18T05:31:07.005Z,94.47
2017-03-18T05:31:55.674Z,94.49
2017-03-18T05:32:43.723Z,94.50
2017-03-18T05:33:38.309Z,94.50
2017-03-18T05:34:26.819Z,94.50
2017-03-18T05:35:20.801Z,94.51
2017-03-18T05:36:08.887Z,94.51
2017-03-18T05:37:02.884Z,94.51
2017-03-18T05:38:02.924Z,94.52
2017-03-18T05:38:51.987Z,94.54
2017-03-18T05:39:51.978Z,94.52
2017-03-18T05:40:47.013Z,94.54
2017-03-18T05:41:41.439Z,94.53
2017-03-18T05:42:35.089Z,94.55
2017-03-18T05:43:35.088Z,94.57
2017-03-18T05:44:29.122Z,94.59
2017-03-18T05:45:30.181Z,94.56
2017-03-18T05:46:18.188Z,94.60
2017-03-18T05:47:06.281Z,94.59
2017-03-18T05:48:00.295Z,94.61
2017-03-18T05:48:54.344Z,94.61
2017-03-18T05:49:43.371Z,94.60
2017-03-18T05:50:31.433Z,94.60
2017-03-18T05:51:19.477Z,94.61
2017-03-18T05:52:14.529Z,94.63
2017-03-18T05:53:08.875Z,94.63
2017-03-18T05:53:57.559Z,94.65
2017-03-18T05:54:45.614Z,94.66
2017-03-18T05:55:45.629Z,94.65
2017-03-18T05:56:34.650Z,94.65
2017-03-18T05:57:28.711Z,94.68
2017-03-18T05:58:22.783Z,94.66
2017-03-18T05:59:10.784Z,94.68
2017-03-18T06:00:04.810Z,94.71
2017-03-18T06:00:58.858Z,94.69
2017-03-18T06:01:52.866Z,94.72
2017-03-18T06:02:47.909Z,94.72
2017-03-18T06:03:41.973Z,94.73
2017-03-18T06:04:36.967Z,94.74
2017-03-18T06:05:36.971Z,94.75
2017-03-18T06:06:32.080Z,94.76
2017-03-18T06:07:26.140Z,94.77
2017-03-18T06:08:15.327Z,94.72
2017-03-18T06:09:03.167Z,94.77
2017-03-18T06:09:52.205Z,94.77
2017-03-18T06:10:40.205Z,94.78
2017-03-18T06:11:29.271Z,94.77
2017-03-18T06:12:24.309Z,94.79
2017-03-18T06:13:13.411Z,94.79
2017-03-18T06:14:02.700Z,94.80
2017-03-18T06:14:51.386Z,94.80
2017-03-18T06:15:40.516Z,94.81
2017-03-18T06:16:35.485Z,94.81
2017-03-18T06:17:24.554Z,94.81
2017-03-18T06:18:18.542Z,94.82
2017-03-18T06:19:07.910Z,94.83
2017-03-18T06:19:56.657Z,94.84
2017-03-18T06:20:44.660Z,94.83
2017-03-18T06:21:32.714Z,94.85
2017-03-18T06:22:21.720Z,94.86
2017-03-18T06:23:09.792Z,94.86
2017-03-18T06:23:57.847Z,94.83
2017-03-18T06:24:52.213Z,94.85
2017-03-18T06:25:46.449Z,94.88
2017-03-18T06:26:40.000Z,94.87
2017-03-18T06:27:33.998Z,94.88
2017-03-18T06:28:29.044Z,94.88
2017-03-18T06:29:23.084Z,94.90
2017-03-18T06:30:11.400Z,94.86
2017-03-18T06:30:59.156Z,94.90
2017-03-18T06:31:48.552Z,94.89
2017-03-18T06:32:36.207Z,94.93
2017-03-18T06:33:36.255Z,94.88
2017-03-18T06:34:30.259Z,94.92
2017-03-18T06:35:24.694Z,94.93
2017-03-18T06:36:12.393Z,94.94
2017-03-18T06:37:01.384Z,94.94
2017-03-18T06:37:55.445Z,94.94
2017-03-18T06:38:49.434Z,94.95
2017-03-18T06:39:43.491Z,94.95
2017-03-18T06:40:37.857Z,94.95
2017-03-18T06:41:31.568Z,94.94
2017-03-18T06:42:25.580Z,94.97
2017-03-18T06:43:13.665Z,94.98
2017-03-18T06:44:01.740Z,94.96
2017-03-18T06:44:50.092Z,94.94
2017-03-18T06:45:44.058Z,94.96
2017-03-18T06:46:38.796Z,94.97
2017-03-18T06:47:27.860Z,94.97
2017-03-18T06:48:16.922Z,94.99
2017-03-18T06:49:05.950Z,94.98
2017-03-18T06:49:54.989Z,94.99
2017-03-18T06:50:44.286Z,94.99
2017-03-18T06:51:32.100Z,95.00
2017-03-18T06:52:26.372Z,95.00
2017-03-18T06:53:15.089Z,94.99
2017-03-18T06:54:04.161Z,95.00
2017-03-18T06:54:53.200Z,95.02
2017-03-18T06:55:47.235Z,95.02
2017-03-18T06:56:35.265Z,95.01
2017-03-18T06:57:24.284Z,95.01
2017-03-18T06:58:13.777Z,95.01
2017-03-18T06:59:08.393Z,95.02
2017-03-18T07:00:08.432Z,95.02
2017-03-18T07:00:57.732Z,95.02
2017-03-18T07:01:51.647Z,95.04
2017-03-18T07:02:45.658Z,95.04
2017-03-18T07:03:33.878Z,95.03
2017-03-18T07:04:27.614Z,95.04
2017-03-18T07:05:16.669Z,95.06
2017-03-18T07:06:05.703Z,95.06
2017-03-18T07:06:59.750Z,95.07
2017-03-18T07:07:47.770Z,95.08
2017-03-18T07:08:37.138Z,95.05
2017-03-18T07:09:36.861Z,95.06
2017-03-18T07:10:30.820Z,95.06
2017-03-18T07:11:19.910Z,95.05
2017-03-18T07:12:19.932Z,95.05
2017-03-18T07:13:13.995Z,95.05
2017-03-18T07:14:02.207Z,95.07
2017-03-18T07:14:56.069Z,95.07
2017-03-18T07:15:45.106Z,95.06
2017-03-18T07:16:34.179Z,95.08
2017-03-18T07:17:28.152Z,95.09
2017-03-18T07:18:16.228Z,95.07
2017-03-18T07:19:11.293Z,95.07
2017-03-18T07:20:05.327Z,95.07
2017-03-18T07:20:54.712Z,95.08
2017-03-18T07:21:48.388Z,95.08
2017-03-18T07:22:42.425Z,95.10
2017-03-18T07:23:36.424Z,95.11
2017-03-18T07:24:25.747Z,95.08
2017-03-18T07:25:20.501Z,95.13
2017-03-18T07:26:09.571Z,95.08
2017-03-18T07:27:09.645Z,95.10
2017-03-18T07:28:03.620Z,95.10
2017-03-18T07:28:58.187Z,95.09
2017-03-18T07:29:46.825Z,95.09
2017-03-18T07:30:41.775Z,95.12
2017-03-18T07:31:41.783Z,95.10
2017-03-18T07:32:30.740Z,95.12
2017-03-18T07:33:19.852Z,95.13
2017-03-18T07:34:08.917Z,95.10
2017-03-18T07:34:57.893Z,95.11
2017-03-18T07:35:46.984Z,95.13
2017-03-18T07:36:34.967Z,95.12
2017-03-18T07:37:29.396Z,95.12
2017-03-18T07:38:23.115Z,95.14
2017-03-18T07:39:17.086Z,95.11
2017-03-18T07:40:05.135Z,95.14
2017-03-18T07:40:53.172Z,95.15
2017-03-18T07:41:41.194Z,95.14
2017-03-18T07:42:30.269Z,95.14
2017-03-18T07:43:24.311Z,95.13
2017-03-18T07:44:19.394Z,95.14
2017-03-18T07:45:13.574Z,95.15
2017-03-18T07:46:01.425Z,95.14
2017-03-18T07:46:50.468Z,95.13
2017-03-18T07:47:44.539Z,95.14
2017-03-18T07:48:32.587Z,95.14
2017-03-18T07:49:21.621Z,95.14
2017-03-18T07:50:16.643Z,95.17
2017-03-18T07:51:10.687Z,95.17
2017-03-18T07:51:58.693Z,95.16
2017-03-18T07:52:47.740Z,95.16
2017-03-18T07:53:35.794Z,95.16
2017-03-18T07:54:24.854Z,95.17
2017-03-18T07:55:12.866Z,95.19
2017-03-18T07:56:01.296Z,95.17
2017-03-18T07:56:54.930Z,95.17
2017-03-18T07:57:48.987Z,95.18
2017-03-18T07:58:37.015Z,95.17
2017-03-18T07:59:26.113Z,95.17
2017-03-18T08:00:14.112Z,95.17
2017-03-18T08:01:02.707Z,95.17
2017-03-18T08:01:56.191Z,95.17
2017-03-18T08:02:56.251Z,95.17
2017-03-18T08:03:45.310Z,95.17
2017-03-18T08:04:33.681Z,95.17
2017-03-18T08:05:21.360Z,95.16
2017-03-18T08:06:10.392Z,95.18
2017-03-18T08:06:58.445Z,95.18
2017-03-18T08:07:52.491Z,95.18
2017-03-18T08:08:41.492Z,95.17
2017-03-18T08:09:29.572Z,95.18
2017-03-18T08:10:17.607Z,95.17
2017-03-18T08:11:06.585Z,95.18
2017-03-18T08:11:54.711Z,95.19
2017-03-18T08:12:48.722Z,95.17
2017-03-18T08:13:38.152Z,95.19
2017-03-18T08:14:31.786Z,95.19
2017-03-18T08:15:20.882Z,95.20
2017-03-18T08:16:14.911Z,95.19
2017-03-18T08:17:03.199Z,95.17
2017-03-18T08:17:56.983Z,95.19
2017-03-18T08:18:45.988Z,95.19
2017-03-18T08:19:35.010Z,95.20
2017-03-18T08:20:23.067Z,95.19
2017-03-18T08:21:12.088Z,95.20
2017-03-18T08:22:00.183Z,95.19
2017-03-18T08:22:54.225Z,95.19
2017-03-18T08:23:49.230Z,95.17
2017-03-18T08:24:38.606Z,95.18
2017-03-18T08:25:32.286Z,95.18
2017-03-18T08:26:21.370Z,95.19
2017-03-18T08:27:09.433Z,95.20
2017-03-18T08:28:03.496Z,95.19
2017-03-18T08:28:51.514Z,95.17
2017-03-18T08:29:45.495Z,95.17
2017-03-18T08:30:40.102Z,95.17
2017-03-18T08:31:27.619Z,95.17
2017-03-18T08:32:16.624Z,95.17
2017-03-18T08:33:10.772Z,95.19
2017-03-18T08:33:59.714Z,95.19
2017-03-18T08:34:53.772Z,95.18
2017-03-18T08:35:42.820Z,95.22
2017-03-18T08:36:36.886Z,95.21
2017-03-18T08:37:30.877Z,95.22
2017-03-18T08:38:18.926Z,95.20
2017-03-18T08:39:08.299Z,95.22
2017-03-18T08:40:01.965Z,95.21
2017-03-18T08:40:57.023Z,95.21
2017-03-18T08:41:46.068Z,95.20
2017-03-18T08:42:40.531Z,95.20
2017-03-18T08:43:28.211Z,95.20
2017-03-18T08:44:22.202Z,95.19
2017-03-18T08:45:17.198Z,95.18
2017-03-18T08:46:12.281Z,95.20
2017-03-18T08:47:01.301Z,95.20
2017-03-18T08:47:55.380Z,95.22
2017-03-18T08:48:44.593Z,95.23
2017-03-18T08:49:38.407Z,95.20
2017-03-18T08:50:32.450Z,95.19
2017-03-18T08:51:21.474Z,95.21
2017-03-18T08:52:09.554Z,95.20
2017-03-18T08:53:03.574Z,95.17
2017-03-18T08:53:57.633Z,95.18
2017-03-18T08:54:51.653Z,95.17
2017-03-18T08:55:40.684Z,95.18
2017-03-18T08:56:28.729Z,95.17
2017-03-18T08:57:22.799Z,95.16
2017-03-18T08:58:17.824Z,95.18
2017-03-18T08:59:06.887Z,95.17
2017-03-18T09:00:00.881Z,95.16
2017-03-18T09:00:54.886Z,95.17
2017-03-18T09:01:48.947Z,95.17
2017-03-18T09:02:44.407Z,95.19
2017-03-18T09:03:32.105Z,95.20
2017-03-18T09:04:20.181Z,95.18
2017-03-18T09:05:14.126Z,95.18
2017-03-18T09:06:09.172Z,95.19
2017-03-18T09:06:57.217Z,95.21
2017-03-18T09:07:51.164Z,95.21
2017-03-18T09:08:40.269Z,95.22
2017-03-18T09:09:29.351Z,95.21
2017-03-18T09:10:18.559Z,95.23
2017-03-18T09:11:07.372Z,95.25
2017-03-18T09:11:56.457Z,95.25
2017-03-18T09:12:50.397Z,95.29
2017-03-18T09:13:44.531Z,95.21
2017-03-18T09:14:33.561Z,95.21
2017-03-18T09:15:22.606Z,95.28
2017-03-18T09:16:16.705Z,95.24
2017-03-18T09:17:05.685Z,95.22
2017-03-18T09:17:54.689Z,95.23
2017-03-18T09:18:49.123Z,95.20
2017-03-18T09:19:43.843Z,95.21
2017-03-18T09:20:37.854Z,95.21
2017-03-18T09:21:26.839Z,95.18
2017-03-18T09:22:14.922Z,95.15
2017-03-18T09:23:03.970Z,95.12
2017-03-18T09:23:52.416Z,95.10
2017-03-18T09:24:41.021Z,95.10
2017-03-18T09:25:29.087Z,95.11
2017-03-18T09:26:23.346Z,95.13
2017-03-18T09:27:11.167Z,95.16
2017-03-18T09:27:59.208Z,95.13
2017-03-18T09:28:53.577Z,95.04
2017-03-18T09:29:41.290Z,95.01
2017-03-18T09:30:35.387Z,94.97
2017-03-18T09:31:29.371Z,94.96
2017-03-18T09:32:17.405Z,94.94
2017-03-18T09:33:06.470Z,94.94
2017-03-18T09:34:06.526Z,94.89
2017-03-18T09:34:55.519Z,94.88
2017-03-18T09:35:44.599Z,94.86
2017-03-18T09:36:33.644Z,94.86
2017-03-18T09:37:23.048Z,94.79
2017-03-18T09:38:10.720Z,94.81
2017-03-18T09:39:04.776Z,94.76
2017-03-18T09:39:53.130Z,94.73
2017-03-18T09:40:40.859Z,94.73
2017-03-18T09:41:29.890Z,94.71
2017-03-18T09:42:17.913Z,94.67
2017-03-18T09:43:06.975Z,94.66
2017-03-18T09:44:01.996Z,94.66
2017-03-18T09:45:02.022Z,94.58
2017-03-18T09:45:56.437Z,94.58
2017-03-18T09:46:44.157Z,94.57
2017-03-18T09:47:33.174Z,94.57
2017-03-18T09:48:27.302Z,94.54
2017-03-18T09:49:15.283Z,94.51
2017-03-18T09:50:09.284Z,94.48
2017-03-18T09:51:04.307Z,94.51
2017-03-18T09:51:53.391Z,94.50
2017-03-18T09:52:47.437Z,94.48
2017-03-18T09:53:41.485Z,94.48
2017-03-18T09:54:36.464Z,94.48
2017-03-18T09:55:25.839Z,94.47
2017-03-18T09:56:19.600Z,94.46
2017-03-18T09:57:13.636Z,94.46
2017-03-18T09:58:01.685Z,94.46
2017-03-18T09:58:55.707Z,94.40
2017-03-18T09:59:50.728Z,94.47
2017-03-18T10:00:39.781Z,94.42
2017-03-18T10:01:34.769Z,94.45
2017-03-18T10:02:29.237Z,94.46
2017-03-18T10:03:16.901Z,94.46
2017-03-18T10:04:04.877Z,94.48
2017-03-18T10:04:59.354Z,94.43
2017-03-18T10:05:47.996Z,94.43
2017-03-18T10:06:36.098Z,94.43
2017-03-18T10:07:31.258Z,94.39
2017-03-18T10:08:20.090Z,94.41
2017-03-18T10:09:08.179Z,94.42
2017-03-18T10:09:57.211Z,94.43
2017-03-18T10:10:51.298Z,94.39
2017-03-18T10:11:40.292Z,94.39
2017-03-18T10:12:29.621Z,94.29
2017-03-18T10:13:18.419Z,94.30
2017-03-18T10:14:07.439Z,94.27
2017-03-18T10:14:55.498Z,94.23
2017-03-18T10:15:44.537Z,94.23
2017-03-18T10:16:32.753Z,94.21
2017-03-18T10:17:26.590Z,94.19
2017-03-18T10:18:20.671Z,94.12
2017-03-18T10:19:14.678Z,94.08
2017-03-18T10:20:08.736Z,94.11
2017-03-18T10:21:03.144Z,94.02
2017-03-18T10:21:51.793Z,93.97
2017-03-18T10:22:45.844Z,93.94
2017-03-18T10:23:34.216Z,93.90
2017-03-18T10:24:27.953Z,93.86
2017-03-18T10:25:21.967Z,93.80
2017-03-18T10:26:17.005Z,93.76
2017-03-18T10:27:12.124Z,93.69
2017-03-18T10:28:01.228Z,93.65
2017-03-18T10:28:55.208Z,93.54
2017-03-18T10:29:49.191Z,93.49
2017-03-18T10:30:38.214Z,93.39
2017-03-18T10:31:27.264Z,93.39
2017-03-18T10:32:22.382Z,93.30
2017-03-18T10:33:16.424Z,93.26
2017-03-18T10:34:05.813Z,93.21
2017-03-18T10:34:53.481Z,93.15
2017-03-18T10:35:42.481Z,93.07
2017-03-18T10:36:36.510Z,93.03
2017-03-18T10:37:30.582Z,93.02
2017-03-18T10:38:24.675Z,92.87
2017-03-18T10:39:13.690Z,92.82
2017-03-18T10:40:01.698Z,92.77
2017-03-18T10:40:55.761Z,92.71
2017-03-18T10:41:49.768Z,92.62
2017-03-18T10:42:44.881Z,92.62
2017-03-18T10:43:34.047Z,92.60
2017-03-18T10:44:27.978Z,92.53
2017-03-18T10:45:15.981Z,92.48
2017-03-18T10:46:10.982Z,92.38
2017-03-18T10:47:06.529Z,92.32
2017-03-18T10:48:00.098Z,92.27
2017-03-18T10:48:48.148Z,92.18
2017-03-18T10:49:37.556Z,92.11
2017-03-18T10:50:32.247Z,91.96
2017-03-18T10:51:21.296Z,91.85
2017-03-18T10:52:15.288Z,91.79
2017-03-18T10:53:03.371Z,91.73
2017-03-18T10:53:57.415Z,91.65
2017-03-18T10:54:51.457Z,91.63
2017-03-18T10:55:46.486Z,91.58
2017-03-18T10:56:40.558Z,91.38
2017-03-18T10:57:28.580Z,91.31
2017-03-18T10:58:17.612Z,91.23
2017-03-18T10:59:05.670Z,91.12
2017-03-18T10:59:54.711Z,91.08
2017-03-18T11:00:42.782Z,91.07
2017-03-18T11:01:30.819Z,90.98
2017-03-18T11:02:24.862Z,90.72
2017-03-18T11:03:18.920Z,90.57
2017-03-18T11:04:08.329Z,90.44
2017-03-18T11:04:56.004Z,90.36
2017-03-18T11:05:50.010Z,90.04
2017-03-18T11:06:39.485Z,89.75
2017-03-18T11:07:33.103Z,89.52
2017-03-18T11:08:22.196Z,89.41
2017-03-18T11:09:16.207Z,89.38
2017-03-18T11:10:10.852Z,88.84
2017-03-18T11:10:58.288Z,88.51
2017-03-18T11:11:46.294Z,88.12